Time;durP1;ratioP1;P1;durP2;ratioP2;P2;SDS_P1;SDS_P2;PMS_P1;PMS_P2;Temp;Humidity;BMP_temperature;BMP_pressure;BME280_temperature;BME280_humidity;BME280_pressure;Samples;Min_cycle;Max_cycle;Signal;HPM_P1;HPM_P2
2021/03/06 00:00:57;;;;;;;;;;;;;;;-1.87;70.07;102225.50;1566539;89;20300;-75
2021/03/06 00:03:42;;;;;;;;;;;;;;;-1.86;70.11;102226.86;1584665;89;20320;-75
2021/03/06 00:06:27;;;;;;;;;;;;;;;-1.89;70.04;102226.68;1605314;89;20305;-76
2021/03/06 00:09:11;;;;;;;;;;;;;;;-1.90;70.15;102228.73;1609979;88;20413;-76
2021/03/06 00:11:56;;;;;;;;;;;;;;;-1.90;70.08;102226.20;1570705;88;21222;-77
2021/03/06 00:14:40;;;;;;;;;;;;;;;-1.88;70.17;102218.68;1556596;89;20303;-78
2021/03/06 00:17:25;;;;;;;;;;;;;;;-1.90;70.18;102213.91;1555939;91;20318;-78
2021/03/06 00:20:10;;;;;;;;;;;;;;;-1.89;70.20;102221.61;1574712;89;20249;-75
2021/03/06 00:22:55;;;;;;;;;;;;;;;-1.87;70.23;102228.91;1582367;87;303199;-75
2021/03/06 00:25:40;;;;;;;;;;;;;;;-1.86;70.19;102225.59;1580410;90;20307;-75
2021/03/06 00:28:24;;;;;;;;;;;;;;;-1.86;70.18;102228.52;1578125;89;20651;-75
2021/03/06 00:31:09;;;;;;;;;;;;;;;-1.87;70.26;102226.37;1580603;89;20298;-75
2021/03/06 00:33:53;;;;;;;;;;;;;;;-1.87;70.17;102225.50;1605498;88;20615;-75
2021/03/06 00:36:38;;;;;;;;;;;;;;;-1.88;70.27;102222.48;1556035;89;20589;-75
2021/03/06 00:39:23;;;;;;;;;;;;;;;-1.88;70.27;102217.41;1573181;89;20387;-75
2021/03/06 00:42:08;;;;;;;;;;;;;;;-1.89;70.22;102224.14;1588676;89;20286;-75
2021/03/06 00:44:52;;;;;;;;;;;;;;;-1.95;70.21;102219.09;1577884;90;20619;-76
2021/03/06 00:47:38;;;;;;;;;;;;;;;-1.97;70.16;102219.39;1580146;89;20407;-76
2021/03/06 00:50:28;;;;;;;;;;;;;;;-1.97;70.32;102211.40;1576993;89;20535;-75
2021/03/06 00:53:12;;;;;;;;;;;;;;;-1.95;70.31;102210.23;1580913;88;20493;-76
2021/03/06 00:55:57;;;;;;;;;;;;;;;-1.96;70.23;102214.42;1580036;89;20296;-76
2021/03/06 00:58:42;;;;;;;;;;;;;;;-1.97;70.23;102207.59;1574401;89;20302;-76
2021/03/06 01:01:27;;;;;;;;;;;;;;;-1.99;70.32;102205.36;1556485;89;20347;-76
2021/03/06 01:04:11;;;;;;;;;;;;;;;-2.02;70.24;102211.12;1555774;89;20330;-76
2021/03/06 01:06:56;;;;;;;;;;;;;;;-2.03;70.39;102205.96;1583975;89;20641;-76
2021/03/06 01:09:41;;;;;;;;;;;;;;;-2.05;70.32;102209.67;1605463;89;20294;-75
2021/03/06 01:12:25;;;;;;;;;;;;;;;-2.06;70.40;102206.66;1567508;89;20677;-76
2021/03/06 01:15:11;;;;;;;;;;;;;;;-2.09;70.44;102205.23;1556766;89;20319;-76
2021/03/06 01:17:55;;;;;;;;;;;;;;;-2.10;70.40;102203.88;1557254;89;20307;-76
2021/03/06 01:20:40;;;;;;;;;;;;;;;-2.11;70.40;102203.00;1580133;89;20272;-76
2021/03/06 01:23:25;;;;;;;;;;;;;;;-2.11;70.47;102204.66;1570026;89;20328;-76
2021/03/06 01:26:10;;;;;;;;;;;;;;;-2.14;70.35;102199.41;1556204;89;20622;-76
2021/03/06 01:28:54;;;;;;;;;;;;;;;-2.17;70.50;102196.68;1557783;89;20313;-76
2021/03/06 01:31:39;;;;;;;;;;;;;;;-2.18;70.49;102201.27;1556475;89;20299;-76
2021/03/06 01:34:23;;;;;;;;;;;;;;;-2.20;70.44;102201.17;1556690;89;21346;-76
2021/03/06 01:37:08;;;;;;;;;;;;;;;-2.22;70.44;102200.59;1556753;89;20322;-76
2021/03/06 01:39:53;;;;;;;;;;;;;;;-2.23;70.56;102197.57;1556592;89;20713;-75
2021/03/06 01:42:37;;;;;;;;;;;;;;;-2.22;70.56;102194.26;1555857;91;20339;-75
2021/03/06 01:45:22;;;;;;;;;;;;;;;-2.26;70.47;102197.00;1555961;91;20290;-75
2021/03/06 01:48:07;;;;;;;;;;;;;;;-2.27;70.47;102199.44;1556217;89;20294;-75
2021/03/06 01:50:52;;;;;;;;;;;;;;;-2.29;70.55;102201.88;1598222;89;20306;-75
2021/03/06 01:53:37;;;;;;;;;;;;;;;-2.28;70.54;102201.48;1600608;88;20326;-76
2021/03/06 01:56:22;;;;;;;;;;;;;;;-2.30;70.61;102200.13;1572538;89;20290;-76
2021/03/06 01:59:06;;;;;;;;;;;;;;;-2.33;70.60;102193.60;1560793;89;300322;-76
2021/03/06 02:01:51;;;;;;;;;;;;;;;-2.33;70.63;102194.87;1580458;89;20291;-76
2021/03/06 02:04:36;;;;;;;;;;;;;;;-2.37;70.56;102189.13;1600804;88;20330;-76
2021/03/06 02:07:21;;;;;;;;;;;;;;;-2.40;70.65;102186.02;1599671;88;20303;-76
2021/03/06 02:10:06;;;;;;;;;;;;;;;-2.40;70.68;102180.08;1586811;88;20690;-76
2021/03/06 02:13:10;;;;;;;;;;;;;;;-2.42;70.64;102187.97;1580489;89;20328;-76
2021/03/06 02:16:07;;;;;;;;;;;;;;;-2.46;70.65;102188.56;1581191;88;20320;-76
2021/03/06 02:19:04;;;;;;;;;;;;;;;-2.50;70.63;102190.03;1586361;87;20297;-75
2021/03/06 02:21:55;;;;;;;;;;;;;;;-2.53;70.72;102188.57;1580444;89;20340;-75
2021/03/06 02:24:58;;;;;;;;;;;;;;;-2.53;70.73;102186.43;1580520;89;20320;-75
2021/03/06 02:27:49;;;;;;;;;;;;;;;-2.53;70.79;102186.43;1590327;88;20578;-76
2021/03/06 02:30:35;;;;;;;;;;;;;;;-2.52;70.83;102189.45;1606385;86;20286;-76
2021/03/06 02:33:20;;;;;;;;;;;;;;;-2.52;70.83;102186.92;1605339;88;20293;-75
2021/03/06 02:36:08;;;;;;;;;;;;;;;-2.53;70.81;102188.96;1586185;88;20302;-75
2021/03/06 02:38:55;;;;;;;;;;;;;;;-2.54;70.87;102189.74;1580595;89;20307;-75
2021/03/06 02:41:42;;;;;;;;;;;;;;;-2.54;70.90;102199.87;1575484;88;20591;-76
2021/03/06 02:44:29;;;;;;;;;;;;;;;-2.59;70.75;102199.58;1580816;89;20312;-76
2021/03/06 02:47:14;;;;;;;;;;;;;;;-2.62;70.86;102199.42;1575514;88;20292;-76
2021/03/06 02:50:00;;;;;;;;;;;;;;;-2.64;70.92;102198.45;1591192;88;20290;-76
2021/03/06 02:52:44;;;;;;;;;;;;;;;-2.65;70.91;102198.36;1580184;89;20629;-76
2021/03/06 02:55:29;;;;;;;;;;;;;;;-2.67;70.89;102200.80;1592113;88;20307;-76
2021/03/06 02:58:24;;;;;;;;;;;;;;;-2.68;70.87;102207.91;1580468;90;21225;-75
2021/03/06 03:01:24;;;;;;;;;;;;;;;-2.69;70.94;102217.55;1581060;88;20521;-75
2021/03/06 03:04:21;;;;;;;;;;;;;;;-2.71;71.00;102210.24;1590351;89;20302;-75
2021/03/06 03:07:08;;;;;;;;;;;;;;;-2.75;71.03;102204.11;1621771;88;20619;-76
2021/03/06 03:09:56;;;;;;;;;;;;;;;-2.76;71.12;102204.02;1610706;86;20321;-77
2021/03/06 03:12:50;;;;;;;;;;;;;;;-2.77;71.07;102204.41;1583297;88;20301;-76
2021/03/06 03:15:41;;;;;;;;;;;;;;;-2.78;71.11;102207.71;1592797;87;20309;-76
2021/03/06 03:18:29;;;;;;;;;;;;;;;-2.80;71.09;102205.86;1613821;87;20325;-77
2021/03/06 03:21:17;;;;;;;;;;;;;;;-2.81;71.15;102211.70;1609089;87;20305;-76
2021/03/06 03:24:07;;;;;;;;;;;;;;;-2.82;71.15;102207.42;1604747;87;20311;-77
2021/03/06 03:26:52;;;;;;;;;;;;;;;-2.83;71.11;102212.87;1605759;87;20294;-77
2021/03/06 03:29:39;;;;;;;;;;;;;;;-2.86;71.12;102208.00;1611386;87;20475;-77
2021/03/06 03:32:24;;;;;;;;;;;;;;;-2.87;71.21;102204.98;1607475;86;20276;-77
2021/03/06 03:35:11;;;;;;;;;;;;;;;-2.86;71.25;102206.34;1597327;89;20176;-77
2021/03/06 03:37:56;;;;;;;;;;;;;;;-2.88;71.15;102205.38;1604814;87;20197;-77
2021/03/06 03:40:41;;;;;;;;;;;;;;;-2.88;71.26;102205.77;1586101;89;20271;-77
2021/03/06 03:43:26;;;;;;;;;;;;;;;-2.89;71.28;102215.40;1594946;86;20330;-77
2021/03/06 03:46:11;;;;;;;;;;;;;;;-2.89;71.31;102220.07;1610131;87;20601;-77
2021/03/06 03:48:56;;;;;;;;;;;;;;;-2.89;71.34;102220.07;1608904;87;20277;-77
2021/03/06 03:51:41;;;;;;;;;;;;;;;-2.88;71.39;102215.50;1636397;87;20980;-77
2021/03/06 03:54:27;;;;;;;;;;;;;;;-2.88;71.31;102220.56;1629779;87;20311;-77
2021/03/06 03:57:11;;;;;;;;;;;;;;;-2.90;71.30;102218.32;1594680;89;20393;-77
2021/03/06 03:59:56;;;;;;;;;;;;;;;-2.90;71.36;102216.17;1610390;87;20385;-76
2021/03/06 04:02:40;;;;;;;;;;;;;;;-2.90;71.36;102221.24;1600803;87;20295;-76
2021/03/06 04:05:25;;;;;;;;;;;;;;;-2.93;71.34;102218.12;1604882;87;20306;-76
2021/03/06 04:08:09;;;;;;;;;;;;;;;-2.93;71.36;102218.52;1636427;86;20522;-76
2021/03/06 04:10:54;;;;;;;;;;;;;;;-2.94;71.35;102217.64;1601914;84;20328;-76
2021/03/06 04:13:39;;;;;;;;;;;;;;;-2.95;71.40;102217.15;1601490;87;20304;-77
2021/03/06 04:16:23;;;;;;;;;;;;;;;-2.95;71.44;102218.80;1606716;87;20317;-77
2021/03/06 04:19:08;;;;;;;;;;;;;;;-2.95;71.47;102226.00;1606725;87;20305;-77
2021/03/06 04:21:53;;;;;;;;;;;;;;;-2.94;71.54;102223.96;1606809;87;21219;-77
2021/03/06 04:24:37;;;;;;;;;;;;;;;-2.91;71.55;102221.62;1610355;87;20632;-77
2021/03/06 04:27:22;;;;;;;;;;;;;;;-2.92;71.57;102224.06;1578253;88;20327;-77
2021/03/06 04:30:09;;;;;;;;;;;;;;;-2.89;71.62;102223.87;1547284;91;20323;-77
2021/03/06 04:32:53;;;;;;;;;;;;;;;-2.91;71.64;102220.75;1550722;90;20322;-77
2021/03/06 04:35:38;;;;;;;;;;;;;;;-2.91;71.66;102225.42;1590444;89;20348;-76
2021/03/06 04:38:23;;;;;;;;;;;;;;;-2.90;71.64;102225.03;1556242;89;20332;-76
2021/03/06 04:41:08;;;;;;;;;;;;;;;-2.91;71.68;102222.02;1588773;89;20341;-76
2021/03/06 04:43:53;;;;;;;;;;;;;;;-2.92;71.61;102222.80;1569919;86;20307;-76
2021/03/06 04:46:38;;;;;;;;;;;;;;;-2.94;71.67;102223.96;1551031;90;20303;-76
2021/03/06 04:49:22;;;;;;;;;;;;;;;-2.95;71.57;102222.20;1562046;89;20341;-76
2021/03/06 04:52:07;;;;;;;;;;;;;;;-2.98;71.70;102223.28;1555761;89;20888;-76
2021/03/06 04:54:51;;;;;;;;;;;;;;;-2.97;71.76;102227.56;1552673;89;20326;-76
2021/03/06 04:57:36;;;;;;;;;;;;;;;-3.00;71.70;102227.36;1551066;90;20602;-77
2021/03/06 05:00:21;;;;;;;;;;;;;;;-3.01;71.73;102227.75;1552613;89;20308;-76
2021/03/06 05:03:06;;;;;;;;;;;;;;;-3.01;71.81;102240.80;1582806;89;20336;-76
2021/03/06 05:05:50;;;;;;;;;;;;;;;-3.07;71.67;102232.41;1581858;86;21038;-76
2021/03/06 05:08:35;;;;;;;;;;;;;;;-3.07;71.80;102242.53;1563102;87;20531;-76
2021/03/06 05:11:19;;;;;;;;;;;;;;;-3.08;71.69;102241.17;1563484;89;20698;-76
2021/03/06 05:14:04;;;;;;;;;;;;;;;-3.13;71.77;102243.83;1575105;89;20304;-76
2021/03/06 05:16:49;;;;;;;;;;;;;;;-3.14;71.79;102239.16;1571218;89;20595;-76
2021/03/06 05:19:33;;;;;;;;;;;;;;;-3.14;71.92;102235.36;1560717;89;20300;-76
2021/03/06 05:22:18;;;;;;;;;;;;;;;-3.14;71.85;102239.54;1574257;89;20595;-76
2021/03/06 05:25:03;;;;;;;;;;;;;;;-3.18;71.93;102241.38;1567076;89;20296;-76
2021/03/06 05:27:52;;;;;;;;;;;;;;;-3.17;71.98;102243.14;1562371;89;20316;-76
2021/03/06 05:30:37;;;;;;;;;;;;;;;-3.19;71.96;102237.98;1571768;89;21213;-76
2021/03/06 05:33:22;;;;;;;;;;;;;;;-3.17;72.03;102240.61;1570532;89;20309;-76
2021/03/06 05:36:07;;;;;;;;;;;;;;;-3.18;71.98;102240.12;1572459;89;20297;-77
2021/03/06 05:38:51;;;;;;;;;;;;;;;-3.21;71.91;102241.18;1551457;89;20299;-76
2021/03/06 05:41:37;;;;;;;;;;;;;;;-3.22;72.08;102244.09;1558125;89;20296;-76
2021/03/06 05:44:22;;;;;;;;;;;;;;;-3.22;72.05;102249.55;1575146;90;20317;-76
2021/03/06 05:47:07;;;;;;;;;;;;;;;-3.20;72.08;102250.52;1565159;89;20323;-76
2021/03/06 05:49:52;;;;;;;;;;;;;;;-3.17;72.22;102254.52;1584307;89;20311;-76
2021/03/06 05:52:39;;;;;;;;;;;;;;;-3.07;72.26;102255.58;1579058;89;20303;-76
2021/03/06 05:55:26;;;;;;;;;;;;;;;-2.96;72.37;102249.95;1566014;89;20289;-76
2021/03/06 05:58:10;;;;;;;;;;;;;;;-2.79;72.46;102245.20;1575348;89;20325;-76
2021/03/06 06:00:56;;;;;;;;;;;;;;;-2.54;72.54;102249.25;1574727;89;20316;-76
2021/03/06 06:03:41;;;;;;;;;;;;;;;-2.20;72.79;102254.77;1575080;89;20313;-77
2021/03/06 06:06:28;;;;;;;;;;;;;;;-1.77;72.77;102260.37;1583086;89;20575;-77
2021/03/06 06:09:12;;;;;;;;;;;;;;;-1.31;72.85;102254.59;1574598;88;20637;-77
2021/03/06 06:11:57;;;;;;;;;;;;;;;-0.86;72.83;102257.59;1572685;89;20343;-77
2021/03/06 06:14:42;;;;;;;;;;;;;;;-0.46;72.47;102264.47;1575772;87;20310;-77
2021/03/06 06:17:26;;;;;;;;;;;;;;;-0.19;72.23;102260.02;1583832;87;20304;-77
2021/03/06 06:20:11;;;;;;;;;;;;;;;-0.13;72.06;102261.22;1570650;89;20304;-77
2021/03/06 06:23:13;;;;;;;;;;;;;;;0.00;72.10;102264.86;1575176;89;20309;-77
2021/03/06 06:25:57;;;;;;;;;;;;;;;0.09;72.00;102269.56;1574204;89;20293;-77
2021/03/06 06:28:48;;;;;;;;;;;;;;;0.29;72.15;102270.22;1556542;89;20317;-76
2021/03/06 06:31:33;;;;;;;;;;;;;;;0.51;72.12;102268.39;1564736;89;20322;-76
2021/03/06 06:34:17;;;;;;;;;;;;;;;0.78;72.19;102268.88;1574340;89;20313;-76
2021/03/06 06:37:10;;;;;;;;;;;;;;;1.02;72.04;102274.33;1568103;90;20293;-76
2021/03/06 06:39:55;;;;;;;;;;;;;;;1.23;72.16;102268.97;1562352;89;20331;-77
2021/03/06 06:42:39;;;;;;;;;;;;;;;1.44;71.96;102274.63;1550661;90;20314;-77
2021/03/06 06:45:25;;;;;;;;;;;;;;;1.58;71.75;102277.40;1550826;90;20310;-77
2021/03/06 06:48:10;;;;;;;;;;;;;;;1.63;71.72;102282.31;1556326;89;20319;-77
2021/03/06 06:51:06;;;;;;;;;;;;;;;1.57;71.52;102280.75;1588107;89;20305;-77
2021/03/06 06:53:51;;;;;;;;;;;;;;;1.58;71.54;102278.27;1601649;85;20337;-77
2021/03/06 06:56:36;;;;;;;;;;;;;;;1.53;71.56;102281.44;1563383;86;20307;-77
2021/03/06 06:59:20;;;;;;;;;;;;;;;1.47;71.47;102278.20;1572325;90;20293;-77
2021/03/06 07:02:07;;;;;;;;;;;;;;;1.47;71.65;102282.42;1565135;89;20315;-77
2021/03/06 07:05:01;;;;;;;;;;;;;;;1.56;71.71;102282.86;1563264;89;20307;-77
2021/03/06 07:07:45;;;;;;;;;;;;;;;1.65;71.81;102281.58;1595547;89;20295;-77
2021/03/06 07:10:39;;;;;;;;;;;;;;;1.82;71.89;102284.92;1581286;89;20299;-77
2021/03/06 07:13:23;;;;;;;;;;;;;;;2.09;71.95;102288.23;1567240;89;20311;-77
2021/03/06 07:16:08;;;;;;;;;;;;;;;2.35;72.03;102289.00;1569601;89;20317;-77
2021/03/06 07:19:00;;;;;;;;;;;;;;;2.60;71.78;102289.67;1572022;89;20311;-76
2021/03/06 07:21:48;;;;;;;;;;;;;;;2.85;71.75;102284.77;1577142;89;20293;-76
2021/03/06 07:24:33;;;;;;;;;;;;;;;3.06;71.60;102287.35;1571966;89;20181;-76
2021/03/06 07:27:17;;;;;;;;;;;;;;;3.27;71.58;102287.33;1569439;89;20278;-76
2021/03/06 07:30:03;;;;;;;;;;;;;;;3.43;71.27;102287.14;1563094;89;20299;-76
2021/03/06 07:32:48;;;;;;;;;;;;;;;3.57;71.40;102292.39;1556626;89;20532;-78
2021/03/06 07:35:38;;;;;;;;;;;;;;;3.75;71.50;102290.05;1558406;89;20279;-78
2021/03/06 07:38:23;;;;;;;;;;;;;;;3.93;71.47;102280.12;1577512;89;20198;-77
2021/03/06 07:41:07;;;;;;;;;;;;;;;4.13;71.24;102286.39;1577669;89;20290;-77
2021/03/06 07:43:52;;;;;;;;;;;;;;;4.24;71.22;102287.63;1558575;89;20666;-77
2021/03/06 07:46:38;;;;;;;;;;;;;;;4.40;71.25;102289.93;1553513;91;20271;-77
2021/03/06 07:49:24;;;;;;;;;;;;;;;4.53;71.07;102287.41;1569235;89;20319;-77
2021/03/06 07:52:10;;;;;;;;;;;;;;;4.68;71.29;102289.62;1566024;89;20325;-77
2021/03/06 07:54:56;;;;;;;;;;;;;;;4.82;71.04;102288.39;1552407;91;20302;-77
2021/03/06 07:58:01;;;;;;;;;;;;;;;4.96;71.14;102285.89;1564480;89;20329;-77
2021/03/06 08:00:51;;;;;;;;;;;;;;;5.25;71.04;102286.82;1576548;89;21048;-77
2021/03/06 08:03:41;;;;;;;;;;;;;;;5.54;70.77;102282.21;1576958;89;20318;-77
2021/03/06 08:06:28;;;;;;;;;;;;;;;5.72;70.98;102280.59;1563643;89;20681;-77
2021/03/06 08:09:13;;;;;;;;;;;;;;;5.70;70.83;102277.14;1553098;89;20331;-77
2021/03/06 08:11:57;;;;;;;;;;;;;;;5.62;70.88;102278.60;1552250;91;20319;-77
2021/03/06 08:14:42;;;;;;;;;;;;;;;5.67;71.04;102275.77;1547758;89;20726;-77
2021/03/06 08:17:32;;;;;;;;;;;;;;;5.70;70.96;102273.30;1534676;92;20387;-77
2021/03/06 08:20:28;;;;;;;;;;;;;;;5.58;70.96;102278.92;1554221;90;20322;-78
2021/03/06 08:23:23;;;;;;;;;;;;;;;5.46;71.09;102277.25;1544640;92;20316;-77
2021/03/06 08:26:26;;;;;;;;;;;;;;;5.36;70.96;102280.34;1534713;93;20324;-77
2021/03/06 08:29:26;;;;;;;;;;;;;;;5.28;70.97;102274.09;1537294;92;20730;-77
2021/03/06 08:32:25;;;;;;;;;;;;;;;5.22;71.06;102277.34;1548033;91;20350;-77
2021/03/06 08:35:21;;;;;;;;;;;;;;;5.16;71.04;102278.45;1549903;90;20336;-77
2021/03/06 08:38:27;;;;;;;;;;;;;;;5.12;70.90;102280.45;1556177;91;20730;-77
2021/03/06 08:41:11;;;;;;;;;;;;;;;5.01;70.84;102283.06;1552449;92;20324;-77
2021/03/06 08:43:56;;;;;;;;;;;;;;;4.93;70.82;102280.66;1558693;90;20338;-77
2021/03/06 08:46:41;;;;;;;;;;;;;;;4.95;70.87;102279.89;1555077;90;20371;-77
2021/03/06 08:49:25;;;;;;;;;;;;;;;5.02;70.75;102280.97;1554290;90;20300;-77
2021/03/06 08:52:10;;;;;;;;;;;;;;;5.23;70.66;102288.46;1553863;90;20316;-77
2021/03/06 08:54:55;;;;;;;;;;;;;;;5.54;70.54;102283.91;1553315;91;20344;-77
2021/03/06 08:57:40;;;;;;;;;;;;;;;5.56;70.43;102280.98;1550866;90;20745;-77
2021/03/06 09:00:27;;;;;;;;;;;;;;;5.38;70.67;102285.52;1551598;91;20604;-77
2021/03/06 09:03:17;;;;;;;;;;;;;;;5.14;70.55;102281.37;1552831;92;20337;-77
2021/03/06 09:06:02;;;;;;;;;;;;;;;4.88;70.48;102284.75;1562527;90;20629;-77
2021/03/06 09:08:54;;;;;;;;;;;;;;;4.70;70.68;102278.59;1565989;89;20354;-77
2021/03/06 09:11:58;;;;;;;;;;;;;;;4.60;70.51;102279.98;1587599;88;20295;-77
2021/03/06 09:14:43;;;;;;;;;;;;;;;4.43;70.50;102279.80;1578208;89;20715;-77
2021/03/06 09:17:27;;;;;;;;;;;;;;;4.29;70.47;102272.89;1603421;89;20625;-77
2021/03/06 09:20:13;;;;;;;;;;;;;;;4.27;70.46;102271.09;1595036;88;20291;-77
2021/03/06 09:22:57;;;;;;;;;;;;;;;4.24;70.39;102259.05;1599366;88;20313;-77
2021/03/06 09:25:42;;;;;;;;;;;;;;;4.19;70.16;102265.70;1605351;87;20614;-77
2021/03/06 09:28:28;;;;;;;;;;;;;;;4.09;70.13;102268.77;1605686;88;20305;-77
2021/03/06 09:31:15;;;;;;;;;;;;;;;4.00;69.97;102260.75;1600505;87;21125;-77
2021/03/06 09:34:02;;;;;;;;;;;;;;;3.93;70.03;102259.64;1606356;86;20605;-77
2021/03/06 09:36:46;;;;;;;;;;;;;;;3.91;70.01;102265.11;1580633;89;20336;-77
2021/03/06 09:39:31;;;;;;;;;;;;;;;3.93;69.83;102256.22;1589261;89;20308;-77
2021/03/06 09:42:16;;;;;;;;;;;;;;;3.96;69.86;102248.66;1580355;89;20305;-77
2021/03/06 09:45:01;;;;;;;;;;;;;;;4.01;69.75;102248.83;1580311;89;20308;-77
2021/03/06 09:47:47;;;;;;;;;;;;;;;4.04;69.64;102252.37;1602790;89;20306;-78
2021/03/06 09:50:32;;;;;;;;;;;;;;;4.02;69.50;102246.32;1624701;88;20240;-77
2021/03/06 09:53:20;;;;;;;;;;;;;;;4.08;69.44;102239.27;1631971;87;20616;-77
2021/03/06 09:56:10;;;;;;;;;;;;;;;4.15;69.51;102237.00;1593054;87;20296;-77
2021/03/06 09:59:03;;;;;;;;;;;;;;;4.22;69.30;102242.77;1580997;87;20345;-78
2021/03/06 10:01:48;;;;;;;;;;;;;;;4.25;69.22;102236.48;1591515;89;20309;-77
2021/03/06 10:04:32;;;;;;;;;;;;;;;4.28;69.07;102236.59;1581098;88;20322;-77
2021/03/06 10:07:24;;;;;;;;;;;;;;;4.27;69.23;102233.56;1549991;90;20424;-77
2021/03/06 10:10:09;;;;;;;;;;;;;;;4.32;68.94;102238.84;1542597;90;20305;-77
2021/03/06 10:12:55;;;;;;;;;;;;;;;4.33;68.92;102239.31;1535401;92;20300;-77
2021/03/06 10:15:40;;;;;;;;;;;;;;;4.35;68.91;102231.69;1549222;91;20282;-77
2021/03/06 10:18:27;;;;;;;;;;;;;;;4.36;68.86;102234.30;1538003;89;20301;-77
2021/03/06 10:21:14;;;;;;;;;;;;;;;4.43;68.93;102225.14;1548227;91;20315;-77
2021/03/06 10:24:03;;;;;;;;;;;;;;;4.43;68.81;102217.05;1542514;89;21270;-77
2021/03/06 10:26:56;;;;;;;;;;;;;;;4.44;68.95;102220.07;1557383;90;20694;-78
2021/03/06 10:29:40;;;;;;;;;;;;;;;4.51;68.88;102232.27;1559557;90;20315;-77
2021/03/06 10:32:25;;;;;;;;;;;;;;;4.52;68.73;102222.91;1559281;90;20304;-77
2021/03/06 10:35:42;;;;;;;;;;;;;;;4.53;68.74;102212.70;1563632;90;20711;-78
2021/03/06 10:38:31;;;;;;;;;;;;;;;4.57;68.77;102212.41;1557157;92;21425;-77
2021/03/06 10:41:19;;;;;;;;;;;;;;;4.57;68.67;102208.15;1558341;90;20271;-77
2021/03/06 10:44:04;;;;;;;;;;;;;;;4.63;68.78;102208.36;1535334;92;20575;-76
2021/03/06 10:46:59;;;;;;;;;;;;;;;4.65;68.65;102201.59;1535867;90;20312;-77
2021/03/06 10:49:48;;;;;;;;;;;;;;;4.65;68.51;102201.59;1552907;90;20318;-77
2021/03/06 10:52:33;;;;;;;;;;;;;;;4.63;68.45;102201.08;1556650;89;20294;-77
2021/03/06 10:55:21;;;;;;;;;;;;;;;4.67;68.48;102194.38;1558420;90;20294;-77
2021/03/06 10:58:06;;;;;;;;;;;;;;;4.70;68.43;102192.75;1535401;92;20593;-77
2021/03/06 11:00:54;;;;;;;;;;;;;;;4.73;68.41;102194.55;1535573;92;20301;-77
2021/03/06 11:03:40;;;;;;;;;;;;;;;4.74;68.40;102192.03;1534647;93;20325;-77
2021/03/06 11:06:24;;;;;;;;;;;;;;;4.82;68.43;102187.16;1551701;90;20324;-77
2021/03/06 11:09:09;;;;;;;;;;;;;;;4.88;68.44;102179.67;1578691;90;20247;-77
2021/03/06 11:11:55;;;;;;;;;;;;;;;4.91;68.29;102187.05;1548485;90;20329;-77
2021/03/06 11:14:39;;;;;;;;;;;;;;;4.95;68.36;102191.45;1561100;90;20688;-77
2021/03/06 11:17:24;;;;;;;;;;;;;;;5.02;68.37;102183.96;1558216;89;20604;-77
2021/03/06 11:20:11;;;;;;;;;;;;;;;5.04;68.30;102179.34;1561413;90;20325;-77
2021/03/06 11:22:58;;;;;;;;;;;;;;;5.04;68.29;102181.03;1570621;89;20281;-77
2021/03/06 11:25:42;;;;;;;;;;;;;;;5.06;68.37;102180.27;1575203;89;20477;-77
2021/03/06 11:28:27;;;;;;;;;;;;;;;5.09;68.29;102173.95;1583736;89;20211;-77
2021/03/06 11:31:11;;;;;;;;;;;;;;;5.11;68.22;102168.45;1550644;90;20181;-77
2021/03/06 11:33:56;;;;;;;;;;;;;;;5.13;68.36;102159.13;1577360;90;20285;-77
2021/03/06 11:36:40;;;;;;;;;;;;;;;5.16;68.24;102160.50;1573569;89;20262;-77
2021/03/06 11:39:25;;;;;;;;;;;;;;;5.18;68.40;102157.56;1544461;91;20284;-77
2021/03/06 11:42:09;;;;;;;;;;;;;;;5.16;68.08;102151.52;1547063;90;20298;-77
2021/03/06 11:44:54;;;;;;;;;;;;;;;5.09;67.76;102153.44;1536884;90;20313;-77
2021/03/06 11:47:38;;;;;;;;;;;;;;;5.04;68.06;102146.42;1535783;91;20304;-77
2021/03/06 11:50:26;;;;;;;;;;;;;;;5.01;67.96;102141.20;1546985;90;20304;-78
2021/03/06 11:53:11;;;;;;;;;;;;;;;4.91;67.95;102133.23;1545444;89;20338;-78
2021/03/06 11:55:56;;;;;;;;;;;;;;;4.88;67.94;102138.66;1576734;87;20322;-78
2021/03/06 11:58:42;;;;;;;;;;;;;;;4.88;67.94;102136.97;1579891;90;20306;-79
2021/03/06 12:01:26;;;;;;;;;;;;;;;4.89;67.94;102129.74;1586081;90;20983;-79
2021/03/06 12:04:11;;;;;;;;;;;;;;;4.91;67.91;102133.64;1586414;89;20214;-79
2021/03/06 12:06:56;;;;;;;;;;;;;;;4.90;67.83;102122.92;1578705;88;20629;-78
2021/03/06 12:09:41;;;;;;;;;;;;;;;4.91;67.74;102127.23;1584947;90;20302;-78
2021/03/06 12:12:26;;;;;;;;;;;;;;;4.90;67.70;102122.52;1581173;89;20329;-78
2021/03/06 12:15:12;;;;;;;;;;;;;;;4.88;67.65;102136.97;1587066;89;20433;-79
2021/03/06 12:17:56;;;;;;;;;;;;;;;4.88;67.71;102119.03;1550041;90;20329;-79
2021/03/06 12:20:41;;;;;;;;;;;;;;;4.88;67.60;102125.44;1545868;90;20572;-79
2021/03/06 12:23:26;;;;;;;;;;;;;;;4.87;67.61;102117.70;1560826;90;20310;-78
2021/03/06 12:26:10;;;;;;;;;;;;;;;4.88;67.63;102119.03;1557148;90;20308;-79
2021/03/06 12:28:55;;;;;;;;;;;;;;;4.92;67.56;102117.44;1561827;91;20290;-79
2021/03/06 12:31:40;;;;;;;;;;;;;;;4.98;67.47;102104.81;1562530;90;20298;-79
2021/03/06 12:34:25;;;;;;;;;;;;;;;5.03;67.51;102108.80;1562509;90;20333;-79
2021/03/06 12:37:10;;;;;;;;;;;;;;;5.04;67.39;102102.44;1558312;88;20297;-79
2021/03/06 12:39:54;;;;;;;;;;;;;;;5.06;67.46;102104.63;1555135;90;20300;-79
2021/03/06 12:42:39;;;;;;;;;;;;;;;5.08;67.32;102094.42;1552111;90;20314;-79
2021/03/06 12:45:23;;;;;;;;;;;;;;;5.07;67.21;102088.42;1558096;90;20713;-78
2021/03/06 12:48:08;;;;;;;;;;;;;;;5.05;67.17;102081.10;1548073;90;20346;-78
2021/03/06 12:50:53;;;;;;;;;;;;;;;5.03;67.18;102080.59;1539543;90;20532;-79
2021/03/06 12:53:38;;;;;;;;;;;;;;;5.03;67.21;102076.34;1560685;90;20303;-79
2021/03/06 12:56:22;;;;;;;;;;;;;;;5.05;67.27;102064.85;1537677;92;20512;-79
2021/03/06 12:59:07;;;;;;;;;;;;;;;5.09;67.10;102082.06;1535390;92;20353;-79
2021/03/06 13:01:52;;;;;;;;;;;;;;;5.09;67.06;102079.09;1504780;93;20368;-79
2021/03/06 13:04:36;;;;;;;;;;;;;;;5.11;66.98;102072.31;1562771;90;20316;-79
2021/03/06 13:07:22;;;;;;;;;;;;;;;5.13;67.13;102076.20;1555009;89;20599;-79
2021/03/06 13:10:08;;;;;;;;;;;;;;;5.12;66.95;102065.08;1552600;89;20333;-79
2021/03/06 13:12:54;;;;;;;;;;;;;;;5.13;66.91;102067.23;1552561;90;20637;-78
2021/03/06 13:15:39;;;;;;;;;;;;;;;5.14;66.87;102081.79;1547917;90;20572;-78
2021/03/06 13:18:23;;;;;;;;;;;;;;;5.14;66.76;102063.43;1547033;90;20616;-78
2021/03/06 13:21:08;;;;;;;;;;;;;;;5.16;66.82;102065.62;1554823;90;20309;-78
2021/03/06 13:23:53;;;;;;;;;;;;;;;5.18;66.69;102063.11;1545566;90;20581;-78
2021/03/06 13:26:38;;;;;;;;;;;;;;;5.20;66.62;102062.30;1533884;90;20225;-78
2021/03/06 13:29:22;;;;;;;;;;;;;;;5.20;66.60;102061.45;1546287;90;20619;-79
2021/03/06 13:32:07;;;;;;;;;;;;;;;5.19;66.63;102055.45;1549644;90;20582;-79
2021/03/06 13:34:52;;;;;;;;;;;;;;;5.19;66.54;102063.56;1556029;90;20329;-79
2021/03/06 13:37:38;;;;;;;;;;;;;;;5.20;66.64;102057.17;1544154;90;20570;-79
2021/03/06 13:40:22;;;;;;;;;;;;;;;5.21;66.55;102065.73;1546911;90;20245;-79
2021/03/06 13:43:07;;;;;;;;;;;;;;;5.22;66.52;102059.77;1536803;90;20636;-79
2021/03/06 13:45:51;;;;;;;;;;;;;;;5.22;66.43;102060.64;1534679;90;20325;-79
2021/03/06 13:48:36;;;;;;;;;;;;;;;5.19;66.33;102050.33;1550166;90;20306;-78
2021/03/06 13:51:21;;;;;;;;;;;;;;;5.17;66.27;102057.11;1536037;90;20296;-78
2021/03/06 13:54:06;;;;;;;;;;;;;;;5.16;66.23;102054.50;1550494;90;20318;-79
2021/03/06 13:56:50;;;;;;;;;;;;;;;5.17;66.42;102047.27;1549628;90;20626;-78
2021/03/06 13:59:35;;;;;;;;;;;;;;;5.19;66.32;102046.90;1540610;90;20298;-78
2021/03/06 14:02:19;;;;;;;;;;;;;;;5.22;66.29;102050.39;1548106;92;20294;-78
2021/03/06 14:05:06;;;;;;;;;;;;;;;5.25;66.29;102040.63;1538341;90;20727;-75
2021/03/06 14:07:50;;;;;;;;;;;;;;;5.26;66.21;102043.66;1552847;90;20307;-75
2021/03/06 14:10:34;;;;;;;;;;;;;;;5.23;66.21;102035.45;1545638;90;20538;-75
2021/03/06 14:13:19;;;;;;;;;;;;;;;5.23;65.92;102041.00;1551253;90;20267;-75
2021/03/06 14:16:04;;;;;;;;;;;;;;;5.24;66.13;102039.77;1545687;90;20283;-75
2021/03/06 14:18:48;;;;;;;;;;;;;;;5.25;65.93;102030.37;1545070;90;20328;-75
2021/03/06 14:21:33;;;;;;;;;;;;;;;5.27;65.87;102032.56;1554542;90;20340;-75